createdAt,value
2022-09-23T00:01:42.830Z,96039.00
2022-09-23T00:04:11.676Z,96069.00
2022-09-23T00:06:41.687Z,96061.00
2022-09-23T00:09:10.093Z,96043.00
2022-09-23T00:11:45.186Z,96035.00
2022-09-23T00:14:17.636Z,96183.00
2022-09-23T00:16:47.579Z,96037.00
2022-09-23T00:19:16.086Z,96056.00
2022-09-23T00:21:49.268Z,96026.00
2022-09-23T00:24:28.532Z,95103.00
2022-09-23T00:26:56.915Z,96030.00
2022-09-23T00:29:26.590Z,96038.00
2022-09-23T00:31:57.612Z,96038.00
2022-09-23T00:34:29.743Z,96020.00
2022-09-23T00:36:58.262Z,96030.00
2022-09-23T00:39:29.166Z,96028.00
2022-09-23T00:41:57.832Z,95979.00
2022-09-23T00:45:00.910Z,96030.00
2022-09-23T00:47:36.461Z,96030.00
2022-09-23T00:50:14.937Z,95747.00
2022-09-23T00:52:43.464Z,96023.00
2022-09-23T00:55:17.471Z,96042.00
2022-09-23T00:57:48.152Z,96012.00
2022-09-23T01:00:16.897Z,96011.00
2022-09-23T01:02:47.672Z,96002.00
2022-09-23T01:05:18.174Z,95864.00
2022-09-23T01:07:50.165Z,96004.00
2022-09-23T01:10:20.070Z,96015.00
2022-09-23T01:13:09.500Z,96019.00
2022-09-23T01:15:49.695Z,95977.00
2022-09-23T01:18:34.818Z,96033.00
2022-09-23T01:21:31.607Z,95997.00
2022-09-23T01:24:47.684Z,95994.00
2022-09-23T01:27:42.188Z,95997.00
2022-09-23T01:30:47.023Z,95991.00
2022-09-23T01:33:25.628Z,95688.00
2022-09-23T01:36:19.125Z,96014.00
2022-09-23T01:38:59.801Z,95993.00
2022-09-23T01:41:48.820Z,95992.00
2022-09-23T01:44:25.703Z,95821.00
2022-09-23T01:47:00.805Z,95997.00
2022-09-23T01:49:38.676Z,96058.00
2022-09-23T01:52:17.566Z,95988.00
2022-09-23T01:54:58.930Z,95983.00
2022-09-23T01:57:35.779Z,95806.00
2022-09-23T02:00:11.781Z,95977.00
2022-09-23T02:02:50.113Z,95978.00
2022-09-23T02:05:25.236Z,95981.00
2022-09-23T02:07:59.955Z,96023.00
2022-09-23T02:10:36.096Z,95272.00
2022-09-23T02:13:15.729Z,95853.00
2022-09-23T02:15:51.842Z,96028.00
2022-09-23T02:18:27.340Z,95897.00
2022-09-23T02:21:01.502Z,95716.00
2022-09-23T02:23:40.860Z,95498.00
2022-09-23T02:26:19.737Z,95984.00
2022-09-23T02:28:57.890Z,96042.00
2022-09-23T02:31:37.524Z,95976.00
2022-09-23T02:34:22.121Z,96054.00
2022-09-23T02:37:07.856Z,95499.00
2022-09-23T02:39:51.454Z,95878.00
2022-09-23T02:42:28.515Z,95717.00
2022-09-23T02:44:58.752Z,95979.00
2022-09-23T02:47:33.007Z,95971.00
2022-09-23T02:50:03.508Z,95978.00
2022-09-23T02:52:32.096Z,95965.00
2022-09-23T02:55:01.745Z,95762.00
2022-09-23T02:57:30.148Z,95966.00
2022-09-23T02:59:59.269Z,95965.00
2022-09-23T03:03:06.363Z,95659.00
2022-09-23T03:05:52.738Z,95710.00
2022-09-23T03:08:39.559Z,95965.00
2022-09-23T03:11:11.329Z,95896.00
2022-09-23T03:14:05.214Z,95952.00
2022-09-23T03:16:43.969Z,95983.00
2022-09-23T03:19:27.529Z,95830.00
2022-09-23T03:22:05.442Z,95826.00
2022-09-23T03:24:37.089Z,95950.00
2022-09-23T03:27:13.856Z,95944.00
2022-09-23T03:29:47.448Z,96072.00
2022-09-23T03:32:24.156Z,95551.00
2022-09-23T03:34:57.805Z,95814.00
2022-09-23T03:37:34.245Z,95941.00
2022-09-23T03:40:10.988Z,95938.00
2022-09-23T03:42:48.924Z,96067.00
2022-09-23T03:45:23.433Z,95946.00
2022-09-23T03:47:51.807Z,95798.00
2022-09-23T03:50:24.464Z,95954.00
2022-09-23T03:52:55.466Z,95997.00
2022-09-23T03:55:23.921Z,95939.00
2022-09-23T03:57:52.699Z,95863.00
2022-09-23T04:00:21.390Z,95934.00
2022-09-23T04:02:50.492Z,95936.00
2022-09-23T04:05:19.300Z,95928.00
2022-09-23T04:07:48.525Z,95931.00
2022-09-23T04:10:18.545Z,95928.00
2022-09-23T04:12:46.985Z,95878.00
2022-09-23T04:15:17.303Z,95921.00
2022-09-23T04:17:45.731Z,95923.00
2022-09-23T04:20:14.310Z,95918.00
2022-09-23T04:22:47.201Z,95642.00
2022-09-23T04:25:17.175Z,95912.00
2022-09-23T04:27:45.616Z,95911.00
2022-09-23T04:30:15.302Z,95916.00
2022-09-23T04:32:43.732Z,95913.00
2022-09-23T04:35:12.116Z,95913.00
2022-09-23T04:37:40.561Z,95912.00
2022-09-23T04:40:14.544Z,95654.00
2022-09-23T04:42:47.038Z,95914.00
2022-09-23T04:45:15.784Z,95921.00
2022-09-23T04:47:44.218Z,95912.00
2022-09-23T04:50:12.695Z,95939.00
2022-09-23T04:52:41.172Z,95916.00
2022-09-23T04:55:11.470Z,95924.00
2022-09-23T04:57:40.063Z,95815.00
2022-09-23T05:00:12.414Z,95914.00
2022-09-23T05:02:45.374Z,95702.00
2022-09-23T05:05:21.629Z,95787.00
2022-09-23T05:07:50.252Z,95917.00
2022-09-23T05:10:19.528Z,95949.00
2022-09-23T05:12:48.003Z,95919.00
2022-09-23T05:15:18.288Z,95926.00
2022-09-23T05:17:46.676Z,95926.00
2022-09-23T05:20:15.128Z,95703.00
2022-09-23T05:22:43.529Z,95856.00
2022-09-23T05:25:11.939Z,95921.00
2022-09-23T05:27:40.366Z,95425.00
2022-09-23T05:30:11.738Z,95877.00
2022-09-23T05:32:41.546Z,95912.00
2022-09-23T05:35:10.598Z,95919.00
2022-09-23T05:37:38.977Z,95911.00
2022-09-23T05:40:08.307Z,95918.00
2022-09-23T05:42:36.778Z,95916.00
2022-09-23T05:45:07.693Z,95923.00
2022-09-23T05:47:40.316Z,95102.00
2022-09-23T05:50:09.821Z,95714.00
2022-09-23T05:52:38.233Z,95924.00
2022-09-23T05:55:08.295Z,95921.00
2022-09-23T05:57:39.088Z,95924.00
2022-09-23T06:00:09.686Z,95931.00
2022-09-23T06:02:38.246Z,95929.00
2022-09-23T06:05:08.921Z,95930.00
2022-09-23T06:07:38.639Z,95917.00
2022-09-23T06:10:08.438Z,95902.00
2022-09-23T06:12:36.827Z,95921.00
2022-09-23T06:15:08.260Z,95923.00
2022-09-23T06:17:36.652Z,95592.00
2022-09-23T06:20:05.488Z,95927.00
2022-09-23T06:22:40.118Z,95919.00
2022-09-23T06:25:09.828Z,95688.00
2022-09-23T06:27:39.497Z,95930.00
2022-09-23T06:30:09.684Z,95918.00
2022-09-23T06:32:41.042Z,95912.00
2022-09-23T06:35:22.400Z,95916.00
2022-09-23T06:37:56.294Z,95911.00
2022-09-23T06:40:24.828Z,95912.00
2022-09-23T06:42:59.790Z,95913.00
2022-09-23T06:45:29.122Z,95913.00
2022-09-23T06:47:59.090Z,95937.00
2022-09-23T06:50:29.165Z,95619.00
2022-09-23T06:52:59.469Z,95916.00
2022-09-23T06:55:28.830Z,95946.00
2022-09-23T06:57:59.822Z,95908.00
2022-09-23T07:00:29.252Z,95905.00
2022-09-23T07:02:57.952Z,95823.00
2022-09-23T07:05:26.439Z,95915.00
2022-09-23T07:07:54.983Z,95905.00
2022-09-23T07:10:24.835Z,95751.00
2022-09-23T07:12:53.213Z,95909.00
2022-09-23T07:15:21.597Z,95905.00
2022-09-23T07:17:50.022Z,95905.00
2022-09-23T07:20:19.056Z,95817.00
2022-09-23T07:22:51.122Z,95835.00
2022-09-23T07:25:20.400Z,95898.00
2022-09-23T07:27:50.395Z,95911.00
2022-09-23T07:30:25.744Z,95906.00
2022-09-23T07:32:54.479Z,95906.00
2022-09-23T07:35:22.927Z,95916.00
2022-09-23T07:37:51.831Z,95897.00
2022-09-23T07:40:20.489Z,95898.00
2022-09-23T07:42:50.498Z,95892.00
2022-09-23T07:45:21.596Z,95892.00
2022-09-23T07:47:50.478Z,95893.00
2022-09-23T07:50:19.128Z,95891.00
2022-09-23T07:52:47.507Z,95765.00
2022-09-23T07:55:20.726Z,95905.00
2022-09-23T07:57:50.920Z,95890.00
2022-09-23T08:00:19.656Z,95914.00
2022-09-23T08:02:52.239Z,95886.00
2022-09-23T08:05:22.736Z,95896.00
2022-09-23T08:07:51.278Z,95889.00
2022-09-23T08:10:21.227Z,95888.00
2022-09-23T08:12:51.009Z,95890.00
2022-09-23T08:15:19.463Z,95896.00
2022-09-23T08:17:47.880Z,95792.00
2022-09-23T08:20:36.394Z,95886.00
2022-09-23T08:23:05.054Z,95222.00
2022-09-23T08:25:34.866Z,95626.00
2022-09-23T08:28:04.826Z,95875.00
2022-09-23T08:30:33.332Z,95874.00
2022-09-23T08:33:01.818Z,95443.00
2022-09-23T08:35:31.001Z,95879.00
2022-09-23T08:37:59.765Z,95899.00
2022-09-23T08:40:28.333Z,95876.00
2022-09-23T08:42:56.928Z,95874.00
2022-09-23T08:45:29.748Z,95695.00
2022-09-23T08:48:10.804Z,95866.00
2022-09-23T08:50:46.045Z,95900.00
2022-09-23T08:53:25.574Z,95867.00
2022-09-23T08:55:56.729Z,95865.00
2022-09-23T08:58:47.446Z,95864.00
2022-09-23T09:01:27.437Z,95683.00
2022-09-23T09:03:58.702Z,95718.00
2022-09-23T09:06:45.546Z,95861.00
2022-09-23T09:09:28.221Z,95875.00
2022-09-23T09:12:04.305Z,95870.00
2022-09-23T09:14:42.946Z,95916.00
2022-09-23T09:17:26.312Z,95862.00
2022-09-23T09:19:59.329Z,95867.00
2022-09-23T09:22:48.490Z,95853.00
2022-09-23T09:25:28.729Z,95863.00
2022-09-23T09:28:01.423Z,95725.00
2022-09-23T09:30:30.054Z,95628.00
2022-09-23T09:33:05.091Z,95609.00
2022-09-23T09:35:41.730Z,95849.00
2022-09-23T09:38:10.158Z,95843.00
2022-09-23T09:40:49.828Z,95853.00
2022-09-23T09:43:23.296Z,95837.00
2022-09-23T09:46:09.377Z,95868.00
2022-09-23T09:48:50.421Z,95834.00
2022-09-23T09:51:22.172Z,95608.00
2022-09-23T09:53:53.027Z,95830.00
2022-09-23T09:56:27.302Z,95822.00
2022-09-23T09:59:00.048Z,95736.00
2022-09-23T10:01:32.254Z,95816.00
2022-09-23T10:04:06.498Z,95812.00
2022-09-23T10:06:37.079Z,95860.00
2022-09-23T10:09:19.255Z,95820.00
2022-09-23T10:12:16.467Z,95865.00
2022-09-23T10:14:46.249Z,95814.00
2022-09-23T10:17:22.491Z,95811.00
2022-09-23T10:20:00.931Z,95810.00
2022-09-23T10:22:34.605Z,95816.00
2022-09-23T10:25:10.592Z,95797.00
2022-09-23T10:27:39.739Z,95801.00
2022-09-23T10:30:22.893Z,95673.00
2022-09-23T10:32:54.981Z,95497.00
2022-09-23T10:35:28.241Z,95845.00
2022-09-23T10:37:58.434Z,95807.00
2022-09-23T10:40:49.660Z,95796.00
2022-09-23T10:43:46.157Z,95796.00
2022-09-23T10:46:39.604Z,95810.00
2022-09-23T10:49:51.246Z,95794.00
2022-09-23T10:52:56.690Z,95801.00
2022-09-23T10:55:49.552Z,95792.00
2022-09-23T10:59:06.172Z,95804.00
2022-09-23T11:01:45.295Z,95796.00
2022-09-23T11:05:08.969Z,95794.00
2022-09-23T11:07:48.132Z,95792.00
2022-09-23T11:11:02.383Z,95797.00
2022-09-23T11:14:04.861Z,95790.00
2022-09-23T11:16:52.609Z,95788.00
2022-09-23T11:20:00.314Z,95784.00
2022-09-23T11:22:53.117Z,95781.00
2022-09-23T11:25:40.041Z,95779.00
2022-09-23T11:28:47.505Z,95733.00
2022-09-23T11:31:33.683Z,95775.00
2022-09-23T11:34:41.391Z,95768.00
2022-09-23T11:37:15.323Z,95766.00
2022-09-23T11:39:52.217Z,95558.00
2022-09-23T11:42:28.150Z,95756.00
2022-09-23T11:45:04.119Z,95619.00
2022-09-23T11:47:42.376Z,95759.00
2022-09-23T11:50:27.792Z,95796.00
2022-09-23T11:53:05.946Z,95481.00
2022-09-23T11:55:54.829Z,95423.00
2022-09-23T11:58:30.612Z,95724.00
2022-09-23T12:01:07.406Z,95679.00
2022-09-23T12:03:49.178Z,95581.00
2022-09-23T12:06:22.932Z,95740.00
2022-09-23T12:08:58.809Z,95743.00
2022-09-23T12:11:39.023Z,95741.00
2022-09-23T12:14:21.909Z,95739.00
2022-09-23T12:17:25.966Z,95734.00
2022-09-23T12:20:41.479Z,95727.00
2022-09-23T12:23:39.863Z,95726.00
2022-09-23T12:26:17.190Z,95646.00
2022-09-23T12:28:51.492Z,95739.00
2022-09-23T12:31:30.570Z,95729.00
2022-09-23T12:34:02.178Z,95715.00
2022-09-23T12:36:35.613Z,95715.00
2022-09-23T12:39:07.787Z,95708.00
2022-09-23T12:41:40.822Z,95731.00
2022-09-23T12:44:34.571Z,95707.00
2022-09-23T12:47:38.380Z,95739.00
2022-09-23T12:50:53.506Z,95705.00
2022-09-23T12:53:58.390Z,95610.00
2022-09-23T12:56:50.647Z,95708.00
2022-09-23T12:59:29.050Z,95706.00
2022-09-23T13:01:58.610Z,95701.00
2022-09-23T13:05:02.685Z,95708.00
2022-09-23T13:07:34.335Z,95704.00
2022-09-23T13:10:19.399Z,95698.00
2022-09-23T13:12:49.094Z,95694.00
2022-09-23T13:15:30.776Z,95698.00
2022-09-23T13:18:52.531Z,95695.00
2022-09-23T13:22:14.447Z,95699.00
2022-09-23T13:24:48.676Z,95696.00
2022-09-23T13:27:23.278Z,95695.00
2022-09-23T13:29:58.945Z,95687.00
2022-09-23T13:32:33.620Z,95719.00
2022-09-23T13:35:07.841Z,95683.00
2022-09-23T13:37:46.225Z,95677.00
2022-09-23T13:40:27.336Z,95677.00
2022-09-23T13:43:02.160Z,95678.00
2022-09-23T13:45:33.209Z,95673.00
2022-09-23T13:48:07.942Z,95610.00
2022-09-23T13:50:40.941Z,95722.00
2022-09-23T13:53:12.890Z,95595.00
2022-09-23T13:55:42.034Z,95574.00
2022-09-23T13:58:20.093Z,95690.00
2022-09-23T14:00:50.659Z,95688.00
2022-09-23T14:03:36.509Z,95665.00
2022-09-23T14:06:10.697Z,95671.00
2022-09-23T14:08:43.543Z,95664.00
2022-09-23T14:11:17.394Z,95434.00
2022-09-23T14:13:48.332Z,95663.00
2022-09-23T14:16:19.952Z,95659.00
2022-09-23T14:18:53.324Z,95659.00
2022-09-23T14:21:35.324Z,95663.00
2022-09-23T14:24:33.702Z,95558.00
2022-09-23T14:27:16.262Z,95660.00
2022-09-23T14:29:49.411Z,95656.00
2022-09-23T14:32:23.740Z,95526.00
2022-09-23T14:35:09.226Z,95660.00
2022-09-23T14:38:03.832Z,95522.00
2022-09-23T14:40:36.096Z,95656.00
2022-09-23T14:43:15.760Z,95651.00
2022-09-23T14:45:51.258Z,95648.00
2022-09-23T14:48:25.343Z,95646.00
2022-09-23T14:50:59.246Z,95651.00
2022-09-23T14:53:40.979Z,95653.00
2022-09-23T14:56:14.717Z,95671.00
2022-09-23T14:58:55.783Z,95682.00
2022-09-23T15:01:39.796Z,95671.00
2022-09-23T15:04:30.951Z,95640.00
2022-09-23T15:07:05.776Z,95658.00
2022-09-23T15:09:40.483Z,95299.00
2022-09-23T15:12:16.320Z,95596.00
2022-09-23T15:14:52.069Z,95641.00
2022-09-23T15:17:34.029Z,95639.00
2022-09-23T15:20:06.698Z,95486.00
2022-09-23T15:22:44.550Z,95631.00
2022-09-23T15:25:21.409Z,95624.00
2022-09-23T15:28:03.591Z,95627.00
2022-09-23T15:30:33.109Z,95558.00
2022-09-23T15:33:01.574Z,95623.00
2022-09-23T15:35:32.238Z,95618.00
2022-09-23T15:38:03.325Z,95613.00
2022-09-23T15:40:34.941Z,95616.00
2022-09-23T15:43:20.141Z,95463.00
2022-09-23T15:45:53.213Z,95422.00
2022-09-23T15:48:25.139Z,95622.00
2022-09-23T15:50:55.311Z,95619.00
2022-09-23T15:53:28.447Z,95334.00
2022-09-23T15:55:58.575Z,95611.00
2022-09-23T15:58:27.722Z,95650.00
2022-09-23T16:00:58.119Z,95603.00
2022-09-23T16:03:29.028Z,95608.00
2022-09-23T16:06:03.262Z,95611.00
2022-09-23T16:08:33.503Z,95599.00
2022-09-23T16:11:02.203Z,95597.00
2022-09-23T16:13:30.713Z,95599.00
2022-09-23T16:15:59.199Z,95589.00
2022-09-23T16:18:28.492Z,95600.00
2022-09-23T16:20:59.139Z,95595.00
2022-09-23T16:23:38.740Z,95604.00
2022-09-23T16:26:16.558Z,95594.00
2022-09-23T16:28:47.218Z,95601.00
2022-09-23T16:31:17.057Z,95618.00
2022-09-23T16:33:46.813Z,95605.00
2022-09-23T16:36:22.663Z,95601.00
2022-09-23T16:38:51.223Z,95609.00
2022-09-23T16:41:21.742Z,95226.00
2022-09-23T16:43:50.367Z,95605.00
2022-09-23T16:46:20.735Z,95609.00
2022-09-23T16:48:52.989Z,95612.00
2022-09-23T16:51:24.360Z,95640.00
2022-09-23T16:53:54.631Z,95610.00
2022-09-23T16:56:28.704Z,95477.00
2022-09-23T16:58:58.235Z,95325.00
2022-09-23T17:01:46.489Z,95621.00
2022-09-23T17:04:17.382Z,95550.00
2022-09-23T17:06:48.435Z,95627.00
2022-09-23T17:09:18.397Z,95621.00
2022-09-23T17:11:53.444Z,95636.00
2022-09-23T17:14:21.939Z,95623.00
2022-09-23T17:16:50.677Z,95615.00
2022-09-23T17:19:19.540Z,95630.00
2022-09-23T17:21:47.906Z,95617.00
2022-09-23T17:24:16.684Z,95621.00
2022-09-23T17:26:52.040Z,95621.00
2022-09-23T17:29:22.744Z,95609.00
2022-09-23T17:31:51.196Z,95607.00
2022-09-23T17:34:19.825Z,95603.00
2022-09-23T17:36:48.268Z,95601.00
2022-09-23T17:39:16.747Z,95607.00
2022-09-23T17:41:45.473Z,95642.00
2022-09-23T17:44:15.501Z,95614.00
2022-09-23T17:46:45.285Z,95508.00
2022-09-23T17:49:13.669Z,95615.00
2022-09-23T17:51:42.265Z,95514.00
2022-09-23T17:54:11.112Z,95632.00
2022-09-23T17:56:39.484Z,95621.00
2022-09-23T17:59:07.927Z,95627.00
2022-09-23T18:01:36.385Z,95624.00
2022-09-23T18:04:06.345Z,95618.00
2022-09-23T18:06:38.038Z,95622.00
2022-09-23T18:09:09.563Z,95569.00
2022-09-23T18:11:40.670Z,95554.00
2022-09-23T18:14:15.316Z,95625.00
2022-09-23T18:16:47.295Z,95629.00
2022-09-23T18:19:20.597Z,95503.00
2022-09-23T18:21:51.769Z,95660.00
2022-09-23T18:24:31.937Z,95617.00
2022-09-23T18:27:01.484Z,95629.00
2022-09-23T18:29:30.067Z,95613.00
2022-09-23T18:31:59.311Z,95612.00
2022-09-23T18:34:29.689Z,95497.00
2022-09-23T18:36:58.282Z,95625.00
2022-09-23T18:39:26.742Z,95534.00
2022-09-23T18:41:55.563Z,95621.00
2022-09-23T18:44:24.340Z,95618.00
2022-09-23T18:46:52.926Z,95624.00
2022-09-23T18:49:38.782Z,95282.00
2022-09-23T18:52:08.792Z,95293.00
2022-09-23T18:54:37.222Z,95617.00
2022-09-23T18:57:05.819Z,95623.00
2022-09-23T18:59:34.196Z,95618.00
2022-09-23T19:02:02.918Z,95614.00
2022-09-23T19:04:31.525Z,95608.00
2022-09-23T19:07:00.321Z,95615.00
2022-09-23T19:09:30.080Z,95611.00
2022-09-23T19:11:58.422Z,95613.00
2022-09-23T19:14:26.785Z,95613.00
2022-09-23T19:16:55.673Z,95630.00
2022-09-23T19:19:24.624Z,95642.00
2022-09-23T19:21:53.033Z,95605.00
2022-09-23T19:24:21.621Z,95608.00
2022-09-23T19:26:51.453Z,95609.00
2022-09-23T19:29:21.847Z,95614.00
2022-09-23T19:31:51.288Z,95416.00
2022-09-23T19:34:23.908Z,95615.00
2022-09-23T19:36:52.890Z,95218.00
2022-09-23T19:39:23.570Z,95612.00
2022-09-23T19:41:55.771Z,95590.00
2022-09-23T19:44:25.233Z,95607.00
2022-09-23T19:46:56.802Z,95550.00
2022-09-23T19:49:26.166Z,95605.00
2022-09-23T19:51:55.806Z,95606.00
2022-09-23T19:54:27.455Z,95525.00
2022-09-23T19:56:57.737Z,95601.00
2022-09-23T19:59:28.206Z,95594.00
2022-09-23T20:01:56.713Z,95091.00
2022-09-23T20:04:26.218Z,95642.00
2022-09-23T20:06:54.616Z,95589.00
2022-09-23T20:09:23.222Z,95189.00
2022-09-23T20:11:52.175Z,94859.00
2022-09-23T20:14:23.359Z,95586.00
2022-09-23T20:16:53.161Z,95580.00
2022-09-23T20:19:21.800Z,95582.00
2022-09-23T20:22:11.314Z,95583.00
2022-09-23T20:24:39.692Z,95578.00
2022-09-23T20:27:10.447Z,95586.00
2022-09-23T20:29:40.323Z,95580.00
2022-09-23T20:32:09.406Z,95573.00
2022-09-23T20:34:37.855Z,95284.00
2022-09-23T20:37:06.424Z,95164.00
2022-09-23T20:39:34.874Z,95360.00
2022-09-23T20:42:03.340Z,95572.00
2022-09-23T20:44:32.123Z,95168.00
2022-09-23T20:47:02.126Z,95613.00
2022-09-23T20:49:34.137Z,95559.00
2022-09-23T20:52:03.682Z,95495.00
2022-09-23T20:54:32.361Z,95564.00
2022-09-23T20:57:02.607Z,95562.00
2022-09-23T20:59:31.321Z,95566.00
2022-09-23T21:02:01.435Z,95556.00
2022-09-23T21:04:29.946Z,95558.00
2022-09-23T21:07:00.372Z,95453.00
2022-09-23T21:09:32.370Z,95542.00
2022-09-23T21:12:01.039Z,95546.00
2022-09-23T21:14:29.497Z,95537.00
2022-09-23T21:16:58.003Z,95538.00
2022-09-23T21:19:28.013Z,94961.00
2022-09-23T21:21:56.444Z,95092.00
2022-09-23T21:25:03.496Z,95534.00
2022-09-23T21:27:13.550Z,95238.00
2022-09-23T21:29:41.975Z,95540.00
2022-09-23T21:32:10.839Z,95543.00
2022-09-23T21:34:40.640Z,95473.00
2022-09-23T21:37:09.011Z,95175.00
2022-09-23T21:39:37.448Z,95189.00
2022-09-23T21:42:06.115Z,95542.00
2022-09-23T21:44:34.742Z,95430.00
2022-09-23T21:47:03.201Z,95544.00
2022-09-23T21:49:32.296Z,95543.00
2022-09-23T21:52:02.424Z,95549.00
2022-09-23T21:54:32.069Z,95547.00
2022-09-23T21:57:00.505Z,95115.00
2022-09-23T21:59:29.601Z,95177.00
2022-09-23T22:01:59.308Z,94962.00
2022-09-23T22:04:27.794Z,95283.00
2022-09-23T22:06:57.433Z,95573.00
2022-09-23T22:09:27.610Z,95282.00
2022-09-23T22:12:11.205Z,95541.00
2022-09-23T22:14:40.171Z,95532.00
2022-09-23T22:17:10.928Z,95276.00
2022-09-23T22:19:45.980Z,95541.00
2022-09-23T22:22:18.075Z,95425.00
2022-09-23T22:24:49.225Z,95396.00
2022-09-23T22:27:20.466Z,95065.00
2022-09-23T22:30:06.171Z,95201.00
2022-09-23T22:32:41.712Z,95373.00
2022-09-23T22:35:13.029Z,94771.00
2022-09-23T22:37:41.785Z,95168.00
2022-09-23T22:40:16.265Z,95583.00
2022-09-23T22:42:45.498Z,95182.00
2022-09-23T22:45:14.427Z,95529.00
2022-09-23T22:47:46.164Z,95170.00
2022-09-23T22:50:16.737Z,94958.00
2022-09-23T22:52:45.154Z,95333.00
2022-09-23T22:55:15.109Z,95535.00
2022-09-23T22:57:43.525Z,95532.00
2022-09-23T23:00:13.542Z,95422.00
2022-09-23T23:02:42.564Z,95294.00
2022-09-23T23:05:11.616Z,95571.00
2022-09-23T23:07:40.535Z,95326.00
2022-09-23T23:10:12.436Z,95423.00
2022-09-23T23:12:42.246Z,95518.00
2022-09-23T23:15:12.429Z,95522.00
2022-09-23T23:17:43.692Z,95052.00
2022-09-23T23:20:12.538Z,95517.00
2022-09-23T23:22:44.239Z,95511.00
2022-09-23T23:25:13.498Z,95509.00
2022-09-23T23:27:44.037Z,95508.00
2022-09-23T23:30:14.578Z,95408.00
2022-09-23T23:32:43.877Z,95350.00
2022-09-23T23:35:24.373Z,95557.00
2022-09-23T23:37:59.674Z,94243.00
2022-09-23T23:40:31.975Z,94941.00
2022-09-23T23:43:05.550Z,95215.00
2022-09-23T23:45:45.907Z,94778.00
2022-09-23T23:48:17.810Z,94763.00
2022-09-23T23:50:59.283Z,94830.00
2022-09-23T23:53:36.753Z,94753.00
2022-09-23T23:56:15.096Z,94783.00
2022-09-23T23:58:59.649Z,94310.00
